• Join FlightAware (Why Join?)
  • Login
  • US Flag 
08:51PM EST


 

Airport Tracker/Info


-or-


 

Live Flight TrackerFlight Track Log ✈ AWE1092 ✈ 18-Apr-2013 ✈ KPHL - KRDU

Flight Track Log - Related Links

Times and Time Zones

All times are in EDT time to prevent confusion due to time zone crossing. See the AWE1092 flight status page for this flight to view local times or setup timezone preferences in your user account.

Time Position Orientation Groundspeed Altitude Reporting Facility
EDT Latitude Longitude Course Direction KTS MPH feet Rate Location/Type
10:09AM 39.8756 -75.2222 189° South 147 169 700  Level FAA TRACON SMA TRACON (SMA)
10:09AM 39.8719 -75.2011 103° East 145 167 1,600 1,950 Climbing FAA TRACON SMA TRACON (SMA)
10:09AM 39.8667 -75.1839 112° Southeast 176 203 2,000 1,317 Climbing FAA TRACON SMA TRACON (SMA)
10:10AM 39.8600 -75.1644 114° Southeast 197 227 2,500 1,950 Climbing FAA TRACON SMA TRACON (SMA)
10:10AM 39.8531 -75.1386 109° East 200 230 3,300 2,923 Climbing FAA TRACON SMA TRACON (SMA)
10:10AM 39.8472 -75.1139 107° East 228 262 4,400 3,150 Climbing FAA TRACON SMA TRACON (SMA)
10:11AM 39.4751 -75.3250 194° South  Level FlightAware Approximate
10:11AM 39.8411 -75.0914 109° East 224 258 5,400  Level FAA TRACON SMA TRACON (SMA)
10:11AM 39.8275 -75.0736 135° Southeast 232 267 6,200 2,550 Climbing FAA TRACON SMA TRACON (SMA)
10:11AM 39.8031 -75.0722 178° South 249 287 7,100 2,700 Climbing FAA TRACON SMA TRACON (SMA)
10:12AM 39.3403 -75.3437 185° South  Level FlightAware Approximate
10:12AM 39.7867 -75.0878 216° Southwest 244 281 8,000  Level FAA TRACON SMA TRACON (SMA)
10:12AM 39.7647 -75.1089 216° Southwest 253 291 8,900 2,927 Climbing FAA TRACON SMA TRACON (SMA)
10:12AM 39.7461 -75.1258 215° Southwest 261 300 10,000 2,634 Climbing FAA TRACON SMA TRACON (SMA)
10:13AM 39.2070 -75.3667 180° South  Level FlightAware Approximate
10:13AM 39.7261 -75.1422 212° Southwest 280 322 10,700  Level FAA TRACON SMA TRACON (SMA)
10:13AM 39.7047 -75.1597 212° Southwest 298 343 11,000 1,650 Climbing FAA TRACON SMA TRACON (SMA)
10:13AM 39.6758 -75.1842 213° Southwest 317 365 11,800 1,538 Climbing FAA TRACON SMA TRACON (SMA)
10:14AM 39.0737 -75.3853 189° South  Level FlightAware Approximate
10:14AM 39.6531 -75.2036 213° Southwest 318 366 12,000  Level FAA TRACON SMA TRACON (SMA)
10:14AM 39.6300 -75.2231 213° Southwest 320 368 12,000 146 Level FAA TRACON SMA TRACON (SMA)
10:14AM 39.6008 -75.2469 212° Southwest 321 369 12,100 305 Climbing FAA TRACON SMA TRACON (SMA)
10:15AM 39.5567 -75.2839 213° Southwest 322 371 12,300 1,300 Climbing FAA TRACON SMA TRACON (SMA)
10:15AM 39.5244 -75.3103 212° Southwest 326 375 13,400 2,850 Climbing FAA TRACON SMA TRACON (SMA)
10:16AM 39.4986 -75.3264 206° Southwest 343 395 14,200 2,100 Climbing FAA TRACON SMA TRACON (SMA)
10:16AM 39.4703 -75.3331 190° South 344 396 14,800 2,195 Climbing FAA TRACON SMA TRACON (SMA)
10:16AM 39.4333 -75.3397 188° South 351 404 15,700 2,700 Climbing FAA TRACON SMA TRACON (SMA)
10:17AM 39.4022 -75.3464 189° South 356 410 16,600 1,950 Climbing FAA TRACON SMA TRACON (SMA)
10:17AM 39.3794 -75.3508 189° South 357 411 17,000 750 Climbing FAA TRACON SMA TRACON (SMA)
10:17AM 39.3339 -75.3586 188° South 359 413 17,100 150 Climbing FAA TRACON SMA TRACON (SMA)
10:18AM 39.3036 -75.3631 186° South 360 414 17,100 1,200 Level FAA TRACON SMA TRACON (SMA)
10:18AM 39.2661 -75.3706 189° South 362 417 17,900 1,395 Climbing FAA TRACON SMA TRACON (SMA)
10:18AM 39.2419 -75.3750 188° South 362 417 18,100 1,850 Climbing FAA TRACON SMA TRACON (SMA)
10:20AM 39.0464 -75.4044 187° South 382 440 22,000 1,976 Climbing Washington Center
10:21AM 38.9361 -75.4261 189° South 393 452 23,700 1,800 Climbing Washington Center
10:22AM 38.8236 -75.4397 185° South 408 470 25,600 1,150 Climbing Washington Center
10:23AM 38.7067 -75.4533 185° South 416 479 26,000 200 Climbing Washington Center
10:24AM 38.5922 -75.4747 188° South 416 479 26,000  Level Washington Center
10:25AM 38.4775 -75.4936 187° South 422 486 26,000  Level Washington Center
10:26AM 38.3650 -75.5097 186° South 422 486 26,000  Level Washington Center
10:27AM 38.2525 -75.5944 211° Southwest 422 486 26,000  Level Washington Center
10:28AM 38.1628 -75.6789 217° Southwest 415 478 26,000  Level Washington Center
10:29AM 38.0644 -75.7631 214° Southwest 421 484 26,000  Level Washington Center
10:30AM 37.9728 -75.8525 218° Southwest 426 490 26,000  Level Washington Center
10:31AM 37.8808 -75.9364 216° Southwest 426 490 26,000  Level Washington Center
10:32AM 37.7867 -76.0228 216° Southwest 426 490 26,000  Level Washington Center
10:33AM 37.6903 -76.1061 214° Southwest 426 490 26,000  Level Washington Center
10:34AM 37.5939 -76.1947 216° Southwest 432 497 26,000  Level Washington Center
10:35AM 37.5017 -76.2803 216° Southwest 432 497 26,000  Level Washington Center
10:36AM 37.4053 -76.3658 215° Southwest 432 497 26,000 -550 Level Washington Center
10:37AM 37.3108 -76.4508 216° Southwest 432 497 24,900 -1,050 Descending Washington Center
10:38AM 37.2244 -76.5464 221° Southwest 432 497 23,900 -850 Descending Washington Center
10:39AM 37.1547 -76.6578 232° Southwest 421 484 23,200 -950 Descending Washington Center
10:40AM 37.0850 -76.7686 232° Southwest 416 479 22,000 -600 Descending Washington Center
10:41AM 37.0169 -76.8769 232° Southwest 411 473 22,000  Level Washington Center
10:42AM 36.9450 -76.9847 230° Southwest 411 473 22,000  Level Washington Center
10:43AM 36.8769 -77.0928 232° Southwest 411 473 22,000  Level Washington Center
10:44AM 36.8044 -77.2003 230° Southwest 411 473 22,000  Level Washington Center
10:45AM 36.7342 -77.3075 231° Southwest 411 473 22,000  Level Washington Center
10:46AM 36.6639 -77.4175 231° Southwest 411 473 22,000  Level Washington Center
10:47AM 36.5931 -77.5269 231° Southwest 411 473 22,000 -300 Level Washington Center
10:48AM 36.5225 -77.6311 230° Southwest 411 473 21,400 -1,350 Descending Washington Center
10:49AM 36.4561 -77.7353 232° Southwest 411 473 19,300 -1,950 Descending Washington Center
10:50AM 36.3939 -77.8369 233° Southwest 399 459 17,500 -1,950 Descending Washington Center
10:51AM 36.3272 -77.9356 230° Southwest 383 441 15,400 -1,950 Descending Washington Center
10:52AM 36.2669 -78.0264 231° Southwest 365 420 13,600 -1,835 Descending Washington Center
10:53AM 36.2369 -78.0642 225° Southwest 335 386 12,800 -1,800 Descending Washington Center
10:53AM 36.2089 -78.1147 235° Southwest 350 403 11,800 -1,636 Descending Washington Center
10:54AM 36.1808 -78.1550 229° Southwest 316 364 11,000 -1,300 Descending Washington Center
10:54AM 36.1611 -78.2008 242° Southwest 318 366 10,500 -612 Descending Washington Center
10:54AM 36.1500 -78.2286 244° Southwest 279 321 10,500 -500 Level Washington Center
10:55AM 36.1342 -78.2822 250° West 276 318 10,000 -984 Descending Washington Center
10:55AM 36.1336 -78.3131 269° West 243 280 9,500 -1,100 Descending Washington Center
10:56AM 36.1386 -78.3672 277° West 254 292 8,900 -889 Descending Washington Center
10:56AM 36.1400 -78.3878 275° West 240 276 8,700 -1,100 Descending Washington Center
10:57AM 36.1408 -78.4494 271° West 249 287 7,800 -1,254 Descending Washington Center
10:57AM 36.1339 -78.4725 250° West 230 265 7,300 -1,300 Descending Washington Center
10:58AM 36.1100 -78.5153 235° Southwest 220 253 6,500 -1,200 Descending Washington Center
10:58AM 36.0950 -78.5275 213° Southwest 221 254 6,200 -1,100 Descending Washington Center
10:59AM 36.0669 -78.5675 229° Southwest 220 253 5,400 -1,250 Descending Washington Center
11:00AM 36.0433 -78.5950 223° Southwest 212 244 4,700 -1,300 Descending Washington Center
11:00AM 36.0261 -78.6175 227° Southwest 215 247 4,100 -1,151 Descending Washington Center
11:01AM 35.9981 -78.6522 225° Southwest 192 221 3,300 -1,000 Descending Washington Center
11:01AM 35.9894 -78.6647 230° Southwest 209 241 3,100 -667 Descending Washington Center